createdAt,value
2022-08-07T00:03:14.554Z,76.86
2022-08-07T00:13:25.646Z,77.18
2022-08-07T00:23:35.914Z,77.50
2022-08-07T00:33:47.963Z,77.37
2022-08-07T00:44:00.627Z,77.33
2022-08-07T00:54:10.504Z,77.11
2022-08-07T01:04:43.438Z,77.35
2022-08-07T01:14:51.219Z,77.44
2022-08-07T01:25:54.184Z,77.50
2022-08-07T01:35:53.686Z,77.78
2022-08-07T01:46:03.075Z,77.73
2022-08-07T01:56:07.749Z,77.85
2022-08-07T02:06:30.931Z,78.10
2022-08-07T02:16:43.851Z,78.32
2022-08-07T02:26:52.447Z,78.09
2022-08-07T02:37:02.326Z,78.03
2022-08-07T02:47:19.874Z,78.24
2022-08-07T02:57:34.207Z,78.47
2022-08-07T03:08:07.341Z,78.53
2022-08-07T03:18:11.691Z,78.30
2022-08-07T03:28:37.980Z,78.57
2022-08-07T03:38:47.029Z,78.64
2022-08-07T03:49:02.584Z,78.57
2022-08-07T03:59:13.724Z,78.83
2022-08-07T04:09:23.472Z,78.61
2022-08-07T04:19:51.253Z,78.90
2022-08-07T04:30:02.634Z,77.53
2022-08-07T04:40:13.704Z,76.94
2022-08-07T04:50:19.551Z,77.08
2022-08-07T05:00:38.075Z,76.59
2022-08-07T05:10:50.576Z,75.57
2022-08-07T05:21:05.949Z,74.11
2022-08-07T05:31:16.662Z,72.70
2022-08-07T05:41:24.541Z,72.03
2022-08-07T05:51:50.712Z,72.14
2022-08-07T06:02:00.368Z,71.20
2022-08-07T06:12:09.248Z,70.14
2022-08-07T06:22:23.551Z,70.37
2022-08-07T06:32:34.989Z,69.83
2022-08-07T06:42:43.526Z,69.16
2022-08-07T06:52:56.661Z,68.25
2022-08-07T07:03:08.659Z,67.84
2022-08-07T07:13:43.591Z,67.92
2022-08-07T07:24:08.377Z,66.13
2022-08-07T07:34:18.179Z,66.79
2022-08-07T07:44:29.323Z,65.37
2022-08-07T07:54:37.732Z,66.19
2022-08-07T08:04:50.599Z,66.39
2022-08-07T08:14:58.217Z,65.14
2022-08-07T08:25:26.918Z,64.63
2022-08-07T08:35:50.632Z,64.18
2022-08-07T08:46:10.576Z,62.50
2022-08-07T08:56:17.358Z,61.04
2022-08-07T09:06:30.924Z,58.60
2022-08-07T09:16:37.987Z,58.55
2022-08-07T09:26:47.718Z,55.17
2022-08-07T09:36:57.425Z,54.88
2022-08-07T09:47:42.628Z,50.15
2022-08-07T09:58:04.712Z,50.94
2022-08-07T10:08:14.145Z,51.48
2022-08-07T10:28:52.671Z,50.04
2022-08-07T10:38:58.442Z,49.57
2022-08-07T10:49:03.814Z,48.94
2022-08-07T10:59:22.112Z,49.34
2022-08-07T11:10:09.318Z,48.93
2022-08-07T11:20:03.561Z,49.15
2022-08-07T11:30:18.346Z,48.81
2022-08-07T11:40:27.602Z,47.72
2022-08-07T11:50:36.860Z,47.86
2022-08-07T12:01:04.329Z,49.12
2022-08-07T12:11:21.942Z,48.67
2022-08-07T12:22:36.392Z,48.66
2022-08-07T12:32:05.806Z,47.76
2022-08-07T12:42:18.350Z,47.15
2022-08-07T12:52:46.236Z,46.72
2022-08-07T13:02:58.100Z,47.67
2022-08-07T13:13:06.736Z,47.10
2022-08-07T13:24:01.217Z,45.67
2022-08-07T13:34:30.882Z,45.32
2022-08-07T13:44:13.051Z,45.55
2022-08-07T13:54:33.549Z,45.15
2022-08-07T14:04:47.455Z,44.80
2022-08-07T14:15:01.464Z,44.43
2022-08-07T14:25:13.072Z,45.11
2022-08-07T14:35:45.760Z,43.99
2022-08-07T14:56:16.202Z,43.84
2022-08-07T15:06:37.421Z,44.56
2022-08-07T15:38:17.235Z,43.32
2022-08-07T15:48:01.906Z,43.12
2022-08-07T15:58:20.745Z,43.63
2022-08-07T16:08:38.588Z,43.97
2022-08-07T16:19:04.897Z,44.88
2022-08-07T16:30:09.968Z,45.78
2022-08-07T16:39:56.060Z,45.17
2022-08-07T17:00:29.541Z,45.52
2022-08-07T17:10:54.771Z,45.62
2022-08-07T17:21:19.082Z,46.00
2022-08-07T17:31:44.332Z,45.94
2022-08-07T17:42:16.477Z,46.58
2022-08-07T17:52:30.988Z,47.51
2022-08-07T18:02:56.837Z,48.21
2022-08-07T18:13:15.521Z,48.72
2022-08-07T18:23:43.207Z,49.65
2022-08-07T18:34:37.004Z,49.92
2022-08-07T18:45:09.200Z,50.49
2022-08-07T18:55:08.399Z,51.08
2022-08-07T19:06:02.771Z,51.30
2022-08-07T19:17:00.561Z,52.03
2022-08-07T19:26:36.217Z,52.73
2022-08-07T19:37:09.573Z,53.47
2022-08-07T19:47:30.966Z,54.18
2022-08-07T19:58:00.064Z,55.06
2022-08-07T20:08:23.002Z,55.71
2022-08-07T20:18:32.189Z,56.76
2022-08-07T20:28:43.857Z,57.18
2022-08-07T20:39:00.891Z,57.89
2022-08-07T20:49:58.048Z,58.76
2022-08-07T21:00:08.382Z,59.28
2022-08-07T21:10:14.983Z,59.70
2022-08-07T21:20:33.517Z,60.63
2022-08-07T21:30:44.552Z,61.40
2022-08-07T21:40:58.959Z,61.99
2022-08-07T21:51:20.394Z,62.60
2022-08-07T22:02:07.187Z,63.37
2022-08-07T22:12:06.958Z,63.68
2022-08-07T22:22:28.795Z,64.27
2022-08-07T22:32:42.266Z,64.74
2022-08-07T22:42:51.716Z,65.49
2022-08-07T22:54:08.789Z,66.00
2022-08-07T23:04:00.558Z,66.14
2022-08-07T23:14:16.255Z,66.60
2022-08-07T23:24:45.357Z,67.07
2022-08-07T23:35:06.229Z,67.42
2022-08-07T23:45:33.421Z,67.56
2022-08-07T23:55:52.414Z,67.99
